sensor_id;sensor_type;location;lat;lon;timestamp;P1;durP1;ratioP1;P2;durP2;ratioP2
29916;SDS011;16786;49.466;11.068;2024-03-29T00:00:41;5.25;;;3.60;;
29916;SDS011;16786;49.466;11.068;2024-03-29T00:03:08;7.45;;;3.78;;
29916;SDS011;16786;49.466;11.068;2024-03-29T00:05:35;5.03;;;3.90;;
29916;SDS011;16786;49.466;11.068;2024-03-29T00:08:02;4.93;;;3.58;;
29916;SDS011;16786;49.466;11.068;2024-03-29T00:10:29;5.13;;;3.45;;
29916;SDS011;16786;49.466;11.068;2024-03-29T00:12:55;6.38;;;3.80;;
29916;SDS011;16786;49.466;11.068;2024-03-29T00:15:21;5.05;;;3.55;;
29916;SDS011;16786;49.466;11.068;2024-03-29T00:17:47;5.05;;;3.97;;
29916;SDS011;16786;49.466;11.068;2024-03-29T00:20:13;5.55;;;3.40;;
29916;SDS011;16786;49.466;11.068;2024-03-29T00:22:39;5.72;;;3.80;;
29916;SDS011;16786;49.466;11.068;2024-03-29T00:25:05;5.20;;;3.55;;
29916;SDS011;16786;49.466;11.068;2024-03-29T00:27:32;4.90;;;3.53;;
29916;SDS011;16786;49.466;11.068;2024-03-29T00:29:58;4.28;;;3.25;;
29916;SDS011;16786;49.466;11.068;2024-03-29T00:32:24;5.63;;;3.60;;
29916;SDS011;16786;49.466;11.068;2024-03-29T00:34:52;5.28;;;3.50;;
29916;SDS011;16786;49.466;11.068;2024-03-29T00:37:19;6.00;;;3.10;;
29916;SDS011;16786;49.466;11.068;2024-03-29T00:39:46;6.78;;;3.60;;
29916;SDS011;16786;49.466;11.068;2024-03-29T00:42:12;5.15;;;3.55;;
29916;SDS011;16786;49.466;11.068;2024-03-29T00:44:41;7.15;;;3.33;;
29916;SDS011;16786;49.466;11.068;2024-03-29T00:47:07;6.10;;;3.13;;
29916;SDS011;16786;49.466;11.068;2024-03-29T00:49:34;5.65;;;3.55;;
29916;SDS011;16786;49.466;11.068;2024-03-29T00:52:00;6.68;;;3.53;;
29916;SDS011;16786;49.466;11.068;2024-03-29T00:54:27;5.93;;;3.03;;
29916;SDS011;16786;49.466;11.068;2024-03-29T00:56:53;4.55;;;3.10;;
29916;SDS011;16786;49.466;11.068;2024-03-29T00:59:19;4.97;;;3.17;;
29916;SDS011;16786;49.466;11.068;2024-03-29T01:01:46;5.65;;;3.17;;
29916;SDS011;16786;49.466;11.068;2024-03-29T01:04:12;4.35;;;2.97;;
29916;SDS011;16786;49.466;11.068;2024-03-29T01:06:38;8.35;;;3.42;;
29916;SDS011;16786;49.466;11.068;2024-03-29T01:09:05;6.22;;;3.60;;
29916;SDS011;16786;49.466;11.068;2024-03-29T01:11:32;4.13;;;3.10;;
29916;SDS011;16786;49.466;11.068;2024-03-29T01:13:58;4.47;;;3.00;;
29916;SDS011;16786;49.466;11.068;2024-03-29T01:16:24;5.18;;;3.05;;
29916;SDS011;16786;49.466;11.068;2024-03-29T01:18:50;5.03;;;3.42;;
29916;SDS011;16786;49.466;11.068;2024-03-29T01:21:17;4.65;;;2.90;;
29916;SDS011;16786;49.466;11.068;2024-03-29T01:23:44;4.00;;;2.88;;
29916;SDS011;16786;49.466;11.068;2024-03-29T01:26:10;5.57;;;3.78;;
29916;SDS011;16786;49.466;11.068;2024-03-29T01:28:39;5.18;;;3.15;;
29916;SDS011;16786;49.466;11.068;2024-03-29T01:31:05;4.95;;;2.72;;
29916;SDS011;16786;49.466;11.068;2024-03-29T01:33:31;3.60;;;2.70;;
29916;SDS011;16786;49.466;11.068;2024-03-29T01:36:01;5.85;;;2.95;;
29916;SDS011;16786;49.466;11.068;2024-03-29T01:38:28;4.13;;;2.83;;
29916;SDS011;16786;49.466;11.068;2024-03-29T01:40:54;4.53;;;3.08;;
29916;SDS011;16786;49.466;11.068;2024-03-29T01:43:20;3.85;;;2.72;;
29916;SDS011;16786;49.466;11.068;2024-03-29T01:45:47;4.05;;;3.00;;
29916;SDS011;16786;49.466;11.068;2024-03-29T01:48:17;4.97;;;3.38;;
29916;SDS011;16786;49.466;11.068;2024-03-29T01:50:44;6.00;;;3.50;;
29916;SDS011;16786;49.466;11.068;2024-03-29T01:53:10;4.18;;;3.00;;
29916;SDS011;16786;49.466;11.068;2024-03-29T01:55:37;5.63;;;3.10;;
29916;SDS011;16786;49.466;11.068;2024-03-29T01:58:04;4.47;;;2.90;;
29916;SDS011;16786;49.466;11.068;2024-03-29T02:00:30;4.90;;;3.10;;
29916;SDS011;16786;49.466;11.068;2024-03-29T02:03:00;5.60;;;3.33;;
29916;SDS011;16786;49.466;11.068;2024-03-29T02:05:27;4.65;;;3.40;;
29916;SDS011;16786;49.466;11.068;2024-03-29T02:07:54;3.90;;;2.97;;
29916;SDS011;16786;49.466;11.068;2024-03-29T02:10:20;5.00;;;3.35;;
29916;SDS011;16786;49.466;11.068;2024-03-29T02:12:46;4.18;;;3.00;;
29916;SDS011;16786;49.466;11.068;2024-03-29T02:15:15;7.05;;;3.03;;
29916;SDS011;16786;49.466;11.068;2024-03-29T02:17:42;4.57;;;3.03;;
29916;SDS011;16786;49.466;11.068;2024-03-29T02:20:08;5.10;;;3.28;;
29916;SDS011;16786;49.466;11.068;2024-03-29T02:22:36;4.38;;;3.20;;
29916;SDS011;16786;49.466;11.068;2024-03-29T02:25:12;6.00;;;3.20;;
29916;SDS011;16786;49.466;11.068;2024-03-29T02:27:38;4.78;;;3.13;;
29916;SDS011;16786;49.466;11.068;2024-03-29T02:30:05;5.53;;;3.58;;
29916;SDS011;16786;49.466;11.068;2024-03-29T02:32:31;4.28;;;3.10;;
29916;SDS011;16786;49.466;11.068;2024-03-29T02:34:57;4.35;;;3.10;;
29916;SDS011;16786;49.466;11.068;2024-03-29T02:37:23;5.30;;;3.00;;
29916;SDS011;16786;49.466;11.068;2024-03-29T02:39:49;3.70;;;2.90;;
29916;SDS011;16786;49.466;11.068;2024-03-29T02:42:15;5.05;;;3.03;;
29916;SDS011;16786;49.466;11.068;2024-03-29T02:44:42;4.30;;;3.20;;
29916;SDS011;16786;49.466;11.068;2024-03-29T02:47:08;5.38;;;3.00;;
29916;SDS011;16786;49.466;11.068;2024-03-29T02:49:34;4.03;;;3.00;;
29916;SDS011;16786;49.466;11.068;2024-03-29T02:52:00;5.25;;;3.15;;
29916;SDS011;16786;49.466;11.068;2024-03-29T02:54:26;4.15;;;3.15;;
29916;SDS011;16786;49.466;11.068;2024-03-29T02:56:52;3.50;;;2.80;;
29916;SDS011;16786;49.466;11.068;2024-03-29T02:59:18;4.30;;;3.20;;
29916;SDS011;16786;49.466;11.068;2024-03-29T03:01:44;3.60;;;3.10;;
29916;SDS011;16786;49.466;11.068;2024-03-29T03:04:10;4.55;;;3.00;;
29916;SDS011;16786;49.466;11.068;2024-03-29T03:06:36;4.43;;;2.78;;
29916;SDS011;16786;49.466;11.068;2024-03-29T03:09:02;3.95;;;2.78;;
29916;SDS011;16786;49.466;11.068;2024-03-29T03:11:46;3.40;;;3.03;;
29916;SDS011;16786;49.466;11.068;2024-03-29T03:14:12;3.20;;;2.90;;
29916;SDS011;16786;49.466;11.068;2024-03-29T03:16:38;4.78;;;3.30;;
29916;SDS011;16786;49.466;11.068;2024-03-29T03:19:04;4.18;;;3.03;;
29916;SDS011;16786;49.466;11.068;2024-03-29T03:21:30;4.55;;;2.88;;
29916;SDS011;16786;49.466;11.068;2024-03-29T03:23:56;4.57;;;3.00;;
29916;SDS011;16786;49.466;11.068;2024-03-29T03:26:22;4.40;;;3.05;;
29916;SDS011;16786;49.466;11.068;2024-03-29T03:28:48;7.07;;;3.20;;
29916;SDS011;16786;49.466;11.068;2024-03-29T03:31:14;4.57;;;3.08;;
29916;SDS011;16786;49.466;11.068;2024-03-29T03:33:40;4.13;;;3.05;;
29916;SDS011;16786;49.466;11.068;2024-03-29T03:36:06;3.67;;;3.15;;
29916;SDS011;16786;49.466;11.068;2024-03-29T03:38:32;3.75;;;2.95;;
29916;SDS011;16786;49.466;11.068;2024-03-29T03:41:00;3.70;;;3.13;;
29916;SDS011;16786;49.466;11.068;2024-03-29T03:43:26;4.63;;;3.10;;
29916;SDS011;16786;49.466;11.068;2024-03-29T03:45:52;6.78;;;3.30;;
29916;SDS011;16786;49.466;11.068;2024-03-29T03:48:17;4.18;;;3.30;;
29916;SDS011;16786;49.466;11.068;2024-03-29T03:50:44;4.35;;;3.28;;
29916;SDS011;16786;49.466;11.068;2024-03-29T03:53:10;4.13;;;3.47;;
29916;SDS011;16786;49.466;11.068;2024-03-29T03:55:36;4.57;;;3.30;;
29916;SDS011;16786;49.466;11.068;2024-03-29T03:58:03;4.30;;;3.60;;
29916;SDS011;16786;49.466;11.068;2024-03-29T04:00:29;7.20;;;3.75;;
29916;SDS011;16786;49.466;11.068;2024-03-29T04:02:55;3.83;;;3.20;;
29916;SDS011;16786;49.466;11.068;2024-03-29T04:05:22;4.15;;;3.45;;
29916;SDS011;16786;49.466;11.068;2024-03-29T04:07:48;5.25;;;3.60;;
29916;SDS011;16786;49.466;11.068;2024-03-29T04:10:14;4.50;;;3.70;;
29916;SDS011;16786;49.466;11.068;2024-03-29T04:12:40;3.65;;;3.25;;
29916;SDS011;16786;49.466;11.068;2024-03-29T04:15:06;4.50;;;3.15;;
29916;SDS011;16786;49.466;11.068;2024-03-29T04:17:33;3.90;;;3.15;;
29916;SDS011;16786;49.466;11.068;2024-03-29T04:19:59;4.47;;;3.10;;
29916;SDS011;16786;49.466;11.068;2024-03-29T04:22:28;4.20;;;3.20;;
29916;SDS011;16786;49.466;11.068;2024-03-29T04:24:54;4.55;;;2.90;;
29916;SDS011;16786;49.466;11.068;2024-03-29T04:27:21;4.63;;;3.30;;
29916;SDS011;16786;49.466;11.068;2024-03-29T04:29:47;4.95;;;3.20;;
29916;SDS011;16786;49.466;11.068;2024-03-29T04:32:16;4.57;;;3.15;;
29916;SDS011;16786;49.466;11.068;2024-03-29T04:34:42;4.75;;;3.00;;
29916;SDS011;16786;49.466;11.068;2024-03-29T04:37:11;3.75;;;3.00;;
29916;SDS011;16786;49.466;11.068;2024-03-29T04:39:37;4.35;;;3.30;;
29916;SDS011;16786;49.466;11.068;2024-03-29T04:42:03;4.40;;;3.00;;
29916;SDS011;16786;49.466;11.068;2024-03-29T04:44:29;4.13;;;3.25;;
29916;SDS011;16786;49.466;11.068;2024-03-29T04:46:55;3.38;;;3.08;;
29916;SDS011;16786;49.466;11.068;2024-03-29T04:49:24;3.53;;;3.10;;
29916;SDS011;16786;49.466;11.068;2024-03-29T04:51:57;3.38;;;3.08;;
29916;SDS011;16786;49.466;11.068;2024-03-29T04:54:23;5.70;;;3.35;;
29916;SDS011;16786;49.466;11.068;2024-03-29T04:56:49;3.80;;;3.40;;
29916;SDS011;16786;49.466;11.068;2024-03-29T04:59:15;3.30;;;3.00;;
29916;SDS011;16786;49.466;11.068;2024-03-29T05:01:43;3.72;;;3.10;;
29916;SDS011;16786;49.466;11.068;2024-03-29T05:04:09;3.72;;;3.20;;
29916;SDS011;16786;49.466;11.068;2024-03-29T05:06:36;4.10;;;3.60;;
29916;SDS011;16786;49.466;11.068;2024-03-29T05:09:02;4.60;;;3.83;;
29916;SDS011;16786;49.466;11.068;2024-03-29T05:11:28;3.08;;;2.78;;
29916;SDS011;16786;49.466;11.068;2024-03-29T05:13:54;3.58;;;3.08;;
29916;SDS011;16786;49.466;11.068;2024-03-29T05:16:20;3.72;;;2.97;;
29916;SDS011;16786;49.466;11.068;2024-03-29T05:18:47;4.80;;;3.15;;
29916;SDS011;16786;49.466;11.068;2024-03-29T05:21:13;3.90;;;3.17;;
29916;SDS011;16786;49.466;11.068;2024-03-29T05:23:39;4.40;;;3.22;;
29916;SDS011;16786;49.466;11.068;2024-03-29T05:26:05;3.30;;;2.72;;
29916;SDS011;16786;49.466;11.068;2024-03-29T05:28:31;9.73;;;3.05;;
29916;SDS011;16786;49.466;11.068;2024-03-29T05:31:08;3.58;;;2.90;;
29916;SDS011;16786;49.466;11.068;2024-03-29T05:33:39;3.45;;;2.83;;
29916;SDS011;16786;49.466;11.068;2024-03-29T05:36:06;3.17;;;2.88;;
29916;SDS011;16786;49.466;11.068;2024-03-29T05:38:34;3.22;;;2.92;;
29916;SDS011;16786;49.466;11.068;2024-03-29T05:41:00;3.95;;;3.17;;
29916;SDS011;16786;49.466;11.068;2024-03-29T05:43:26;3.28;;;2.97;;
29916;SDS011;16786;49.466;11.068;2024-03-29T05:45:52;3.38;;;3.08;;
29916;SDS011;16786;49.466;11.068;2024-03-29T05:48:18;3.20;;;2.90;;
29916;SDS011;16786;49.466;11.068;2024-03-29T05:50:44;3.65;;;3.00;;
29916;SDS011;16786;49.466;11.068;2024-03-29T05:53:10;3.33;;;3.03;;
29916;SDS011;16786;49.466;11.068;2024-03-29T05:55:36;4.65;;;3.58;;
29916;SDS011;16786;49.466;11.068;2024-03-29T05:58:02;5.22;;;3.97;;
29916;SDS011;16786;49.466;11.068;2024-03-29T06:00:31;5.45;;;4.28;;
29916;SDS011;16786;49.466;11.068;2024-03-29T06:03:01;4.88;;;3.97;;
29916;SDS011;16786;49.466;11.068;2024-03-29T06:05:28;3.83;;;3.33;;
29916;SDS011;16786;49.466;11.068;2024-03-29T06:07:54;4.05;;;3.33;;
29916;SDS011;16786;49.466;11.068;2024-03-29T06:10:20;3.20;;;2.90;;
29916;SDS011;16786;49.466;11.068;2024-03-29T06:12:46;3.90;;;3.20;;
29916;SDS011;16786;49.466;11.068;2024-03-29T06:15:12;4.57;;;3.40;;
29916;SDS011;16786;49.466;11.068;2024-03-29T06:17:57;3.50;;;3.20;;
29916;SDS011;16786;49.466;11.068;2024-03-29T06:20:23;4.03;;;3.20;;
29916;SDS011;16786;49.466;11.068;2024-03-29T06:22:49;3.78;;;3.22;;
29916;SDS011;16786;49.466;11.068;2024-03-29T06:25:16;3.30;;;3.00;;
29916;SDS011;16786;49.466;11.068;2024-03-29T06:27:42;3.92;;;3.30;;
29916;SDS011;16786;49.466;11.068;2024-03-29T06:30:13;4.00;;;3.20;;
29916;SDS011;16786;49.466;11.068;2024-03-29T06:32:41;3.60;;;3.20;;
29916;SDS011;16786;49.466;11.068;2024-03-29T06:35:07;3.47;;;3.17;;
29916;SDS011;16786;49.466;11.068;2024-03-29T06:37:33;3.25;;;2.90;;
29916;SDS011;16786;49.466;11.068;2024-03-29T06:39:59;4.03;;;3.33;;
29916;SDS011;16786;49.466;11.068;2024-03-29T06:42:25;3.83;;;3.28;;
29916;SDS011;16786;49.466;11.068;2024-03-29T06:44:51;3.22;;;2.90;;
29916;SDS011;16786;49.466;11.068;2024-03-29T06:47:20;4.07;;;3.45;;
29916;SDS011;16786;49.466;11.068;2024-03-29T06:49:45;3.97;;;3.22;;
29916;SDS011;16786;49.466;11.068;2024-03-29T06:52:12;7.68;;;5.22;;
29916;SDS011;16786;49.466;11.068;2024-03-29T06:54:38;4.43;;;3.60;;
29916;SDS011;16786;49.466;11.068;2024-03-29T06:57:04;4.97;;;3.78;;
29916;SDS011;16786;49.466;11.068;2024-03-29T06:59:30;3.92;;;3.45;;
29916;SDS011;16786;49.466;11.068;2024-03-29T07:01:56;3.90;;;3.50;;
29916;SDS011;16786;49.466;11.068;2024-03-29T07:04:22;3.60;;;3.30;;
29916;SDS011;16786;49.466;11.068;2024-03-29T07:06:50;4.40;;;3.20;;
29916;SDS011;16786;49.466;11.068;2024-03-29T07:09:17;3.50;;;3.20;;
29916;SDS011;16786;49.466;11.068;2024-03-29T07:11:45;4.15;;;3.45;;
29916;SDS011;16786;49.466;11.068;2024-03-29T07:14:12;5.15;;;3.70;;
29916;SDS011;16786;49.466;11.068;2024-03-29T07:16:42;4.00;;;3.60;;
29916;SDS011;16786;49.466;11.068;2024-03-29T07:19:08;4.03;;;3.60;;
29916;SDS011;16786;49.466;11.068;2024-03-29T07:21:38;3.53;;;3.15;;
29916;SDS011;16786;49.466;11.068;2024-03-29T07:24:05;3.50;;;3.20;;
29916;SDS011;16786;49.466;11.068;2024-03-29T07:26:32;4.15;;;3.85;;
29916;SDS011;16786;49.466;11.068;2024-03-29T07:28:58;4.93;;;4.05;;
29916;SDS011;16786;49.466;11.068;2024-03-29T07:31:24;4.45;;;3.40;;
29916;SDS011;16786;49.466;11.068;2024-03-29T07:33:50;5.65;;;3.15;;
29916;SDS011;16786;49.466;11.068;2024-03-29T07:36:16;4.05;;;3.53;;
29916;SDS011;16786;49.466;11.068;2024-03-29T07:38:42;4.50;;;3.53;;
29916;SDS011;16786;49.466;11.068;2024-03-29T07:41:11;4.10;;;3.58;;
29916;SDS011;16786;49.466;11.068;2024-03-29T07:43:39;6.03;;;3.75;;
29916;SDS011;16786;49.466;11.068;2024-03-29T07:46:06;3.92;;;3.55;;
29916;SDS011;16786;49.466;11.068;2024-03-29T07:48:36;3.88;;;3.50;;
29916;SDS011;16786;49.466;11.068;2024-03-29T07:51:02;3.92;;;3.60;;
29916;SDS011;16786;49.466;11.068;2024-03-29T07:53:28;4.78;;;3.80;;
29916;SDS011;16786;49.466;11.068;2024-03-29T07:55:54;4.55;;;3.90;;
29916;SDS011;16786;49.466;11.068;2024-03-29T07:58:20;4.20;;;3.70;;
29916;SDS011;16786;49.466;11.068;2024-03-29T08:00:46;4.10;;;3.70;;
29916;SDS011;16786;49.466;11.068;2024-03-29T08:03:12;3.88;;;3.53;;
29916;SDS011;16786;49.466;11.068;2024-03-29T08:05:38;6.60;;;4.05;;
29916;SDS011;16786;49.466;11.068;2024-03-29T08:08:05;4.22;;;3.40;;
29916;SDS011;16786;49.466;11.068;2024-03-29T08:10:32;3.88;;;3.53;;
29916;SDS011;16786;49.466;11.068;2024-03-29T08:12:58;4.30;;;3.90;;
29916;SDS011;16786;49.466;11.068;2024-03-29T08:15:26;5.32;;;3.65;;
29916;SDS011;16786;49.466;11.068;2024-03-29T08:17:52;4.10;;;3.70;;
29916;SDS011;16786;49.466;11.068;2024-03-29T08:20:18;6.50;;;4.68;;
29916;SDS011;16786;49.466;11.068;2024-03-29T08:22:44;6.40;;;5.53;;
29916;SDS011;16786;49.466;11.068;2024-03-29T08:25:10;5.22;;;4.68;;
29916;SDS011;16786;49.466;11.068;2024-03-29T08:27:36;5.28;;;4.32;;
29916;SDS011;16786;49.466;11.068;2024-03-29T08:30:03;5.65;;;5.05;;
29916;SDS011;16786;49.466;11.068;2024-03-29T08:32:29;4.40;;;4.00;;
29916;SDS011;16786;49.466;11.068;2024-03-29T08:34:55;4.82;;;4.32;;
29916;SDS011;16786;49.466;11.068;2024-03-29T08:37:21;4.78;;;4.30;;
29916;SDS011;16786;49.466;11.068;2024-03-29T08:39:47;5.10;;;4.20;;
29916;SDS011;16786;49.466;11.068;2024-03-29T08:42:13;4.45;;;4.05;;
29916;SDS011;16786;49.466;11.068;2024-03-29T08:44:39;4.20;;;3.80;;
29916;SDS011;16786;49.466;11.068;2024-03-29T08:47:05;4.22;;;3.83;;
29916;SDS011;16786;49.466;11.068;2024-03-29T08:49:31;4.40;;;3.90;;
29916;SDS011;16786;49.466;11.068;2024-03-29T08:51:57;5.18;;;4.18;;
29916;SDS011;16786;49.466;11.068;2024-03-29T08:54:25;4.40;;;4.00;;
29916;SDS011;16786;49.466;11.068;2024-03-29T08:56:53;6.18;;;4.85;;
29916;SDS011;16786;49.466;11.068;2024-03-29T08:59:19;5.35;;;4.40;;
29916;SDS011;16786;49.466;11.068;2024-03-29T09:01:45;4.70;;;4.20;;
29916;SDS011;16786;49.466;11.068;2024-03-29T09:04:14;6.50;;;4.30;;
29916;SDS011;16786;49.466;11.068;2024-03-29T09:06:41;4.78;;;4.32;;
29916;SDS011;16786;49.466;11.068;2024-03-29T09:09:08;4.80;;;3.80;;
29916;SDS011;16786;49.466;11.068;2024-03-29T09:11:35;4.22;;;3.50;;
29916;SDS011;16786;49.466;11.068;2024-03-29T09:14:01;4.35;;;3.95;;
29916;SDS011;16786;49.466;11.068;2024-03-29T09:16:29;4.68;;;3.85;;
29916;SDS011;16786;49.466;11.068;2024-03-29T09:18:55;5.75;;;4.30;;
29916;SDS011;16786;49.466;11.068;2024-03-29T09:21:21;4.25;;;3.83;;
29916;SDS011;16786;49.466;11.068;2024-03-29T09:23:47;4.93;;;3.50;;
29916;SDS011;16786;49.466;11.068;2024-03-29T09:26:16;4.10;;;3.50;;
29916;SDS011;16786;49.466;11.068;2024-03-29T09:28:42;4.50;;;3.50;;
29916;SDS011;16786;49.466;11.068;2024-03-29T09:31:08;5.05;;;3.92;;
29916;SDS011;16786;49.466;11.068;2024-03-29T09:33:34;8.70;;;5.07;;
29916;SDS011;16786;49.466;11.068;2024-03-29T09:36:00;7.25;;;5.15;;
29916;SDS011;16786;49.466;11.068;2024-03-29T09:38:26;7.53;;;3.88;;
29916;SDS011;16786;49.466;11.068;2024-03-29T09:43:41;5.60;;;4.00;;
29916;SDS011;16786;49.466;11.068;2024-03-29T09:46:10;6.75;;;4.00;;
29916;SDS011;16786;49.466;11.068;2024-03-29T09:48:37;7.30;;;3.40;;
29916;SDS011;16786;49.466;11.068;2024-03-29T09:51:04;4.70;;;3.17;;
29916;SDS011;16786;49.466;11.068;2024-03-29T09:53:37;4.57;;;3.17;;
29916;SDS011;16786;49.466;11.068;2024-03-29T09:56:04;4.13;;;3.33;;
29916;SDS011;16786;49.466;11.068;2024-03-29T09:58:31;5.60;;;3.20;;
29916;SDS011;16786;49.466;11.068;2024-03-29T10:00:58;4.82;;;3.42;;
29916;SDS011;16786;49.466;11.068;2024-03-29T10:03:24;4.88;;;3.88;;
29916;SDS011;16786;49.466;11.068;2024-03-29T10:05:58;6.55;;;4.10;;
29916;SDS011;16786;49.466;11.068;2024-03-29T10:08:29;3.95;;;3.33;;
29916;SDS011;16786;49.466;11.068;2024-03-29T10:10:56;4.40;;;3.60;;
29916;SDS011;16786;49.466;11.068;2024-03-29T10:13:23;7.63;;;4.10;;
29916;SDS011;16786;49.466;11.068;2024-03-29T10:15:49;7.15;;;4.60;;
29916;SDS011;16786;49.466;11.068;2024-03-29T10:18:19;5.47;;;3.95;;
29916;SDS011;16786;49.466;11.068;2024-03-29T10:20:58;5.22;;;3.92;;
29916;SDS011;16786;49.466;11.068;2024-03-29T10:23:33;4.55;;;3.67;;
29916;SDS011;16786;49.466;11.068;2024-03-29T10:26:01;5.13;;;3.72;;
29916;SDS011;16786;49.466;11.068;2024-03-29T10:28:30;6.47;;;3.10;;
29916;SDS011;16786;49.466;11.068;2024-03-29T10:30:58;5.10;;;3.83;;
29916;SDS011;16786;49.466;11.068;2024-03-29T10:33:29;7.97;;;4.28;;
29916;SDS011;16786;49.466;11.068;2024-03-29T10:35:56;7.38;;;4.10;;
29916;SDS011;16786;49.466;11.068;2024-03-29T10:38:24;5.95;;;3.40;;
29916;SDS011;16786;49.466;11.068;2024-03-29T10:40:52;4.55;;;3.35;;
29916;SDS011;16786;49.466;11.068;2024-03-29T10:43:18;5.00;;;3.60;;
29916;SDS011;16786;49.466;11.068;2024-03-29T10:45:46;8.68;;;6.32;;
29916;SDS011;16786;49.466;11.068;2024-03-29T10:48:25;5.80;;;4.40;;
29916;SDS011;16786;49.466;11.068;2024-03-29T10:50:57;5.05;;;4.10;;
29916;SDS011;16786;49.466;11.068;2024-03-29T10:53:24;6.32;;;3.45;;
29916;SDS011;16786;49.466;11.068;2024-03-29T10:55:56;6.85;;;3.70;;
29916;SDS011;16786;49.466;11.068;2024-03-29T10:58:25;4.40;;;3.42;;
29916;SDS011;16786;49.466;11.068;2024-03-29T11:00:56;6.88;;;4.60;;
29916;SDS011;16786;49.466;11.068;2024-03-29T11:03:36;7.20;;;4.40;;
29916;SDS011;16786;49.466;11.068;2024-03-29T11:06:06;6.40;;;4.97;;
29916;SDS011;16786;49.466;11.068;2024-03-29T11:08:34;7.05;;;4.60;;
29916;SDS011;16786;49.466;11.068;2024-03-29T11:11:06;6.20;;;3.83;;
29916;SDS011;16786;49.466;11.068;2024-03-29T11:16:12;4.90;;;3.80;;
29916;SDS011;16786;49.466;11.068;2024-03-29T11:18:43;8.07;;;4.10;;
29916;SDS011;16786;49.466;11.068;2024-03-29T11:21:10;5.18;;;3.42;;
29916;SDS011;16786;49.466;11.068;2024-03-29T11:23:37;4.78;;;3.13;;
29916;SDS011;16786;49.466;11.068;2024-03-29T11:26:04;5.95;;;3.65;;
29916;SDS011;16786;49.466;11.068;2024-03-29T11:28:32;6.15;;;3.42;;
29916;SDS011;16786;49.466;11.068;2024-03-29T11:31:01;6.13;;;4.25;;
29916;SDS011;16786;49.466;11.068;2024-03-29T11:33:32;6.93;;;4.03;;
29916;SDS011;16786;49.466;11.068;2024-03-29T11:36:10;6.25;;;4.65;;
29916;SDS011;16786;49.466;11.068;2024-03-29T11:38:51;6.07;;;3.70;;
29916;SDS011;16786;49.466;11.068;2024-03-29T11:41:21;4.63;;;3.30;;
29916;SDS011;16786;49.466;11.068;2024-03-29T11:43:52;8.73;;;4.65;;
29916;SDS011;16786;49.466;11.068;2024-03-29T11:46:19;7.38;;;4.65;;
29916;SDS011;16786;49.466;11.068;2024-03-29T11:48:45;6.00;;;3.95;;
29916;SDS011;16786;49.466;11.068;2024-03-29T11:51:15;6.82;;;4.30;;
29916;SDS011;16786;49.466;11.068;2024-03-29T11:53:44;5.38;;;3.83;;
29916;SDS011;16786;49.466;11.068;2024-03-29T11:56:10;5.47;;;3.90;;
29916;SDS011;16786;49.466;11.068;2024-03-29T11:58:40;6.93;;;4.78;;
29916;SDS011;16786;49.466;11.068;2024-03-29T12:01:06;5.45;;;4.07;;
29916;SDS011;16786;49.466;11.068;2024-03-29T12:03:37;5.00;;;3.60;;
29916;SDS011;16786;49.466;11.068;2024-03-29T12:06:06;4.18;;;3.58;;
29916;SDS011;16786;49.466;11.068;2024-03-29T12:08:33;5.78;;;3.92;;
29916;SDS011;16786;49.466;11.068;2024-03-29T12:11:00;6.53;;;4.13;;
29916;SDS011;16786;49.466;11.068;2024-03-29T12:13:27;6.65;;;4.75;;
29916;SDS011;16786;49.466;11.068;2024-03-29T12:15:54;7.30;;;5.00;;
29916;SDS011;16786;49.466;11.068;2024-03-29T12:18:21;7.50;;;4.93;;
29916;SDS011;16786;49.466;11.068;2024-03-29T12:20:48;8.80;;;6.00;;
29916;SDS011;16786;49.466;11.068;2024-03-29T12:23:15;10.93;;;6.03;;
29916;SDS011;16786;49.466;11.068;2024-03-29T12:25:42;14.05;;;9.52;;
29916;SDS011;16786;49.466;11.068;2024-03-29T12:28:09;7.68;;;5.57;;
29916;SDS011;16786;49.466;11.068;2024-03-29T12:30:36;7.63;;;5.25;;
29916;SDS011;16786;49.466;11.068;2024-03-29T12:33:06;7.15;;;4.95;;
29916;SDS011;16786;49.466;11.068;2024-03-29T12:35:34;7.45;;;5.03;;
29916;SDS011;16786;49.466;11.068;2024-03-29T12:38:02;7.55;;;5.60;;
29916;SDS011;16786;49.466;11.068;2024-03-29T12:40:30;8.80;;;5.85;;
29916;SDS011;16786;49.466;11.068;2024-03-29T12:43:04;7.22;;;5.63;;
29916;SDS011;16786;49.466;11.068;2024-03-29T12:45:31;5.90;;;4.93;;
29916;SDS011;16786;49.466;11.068;2024-03-29T12:47:57;6.85;;;5.40;;
29916;SDS011;16786;49.466;11.068;2024-03-29T12:50:31;7.05;;;5.22;;
29916;SDS011;16786;49.466;11.068;2024-03-29T12:52:59;6.50;;;5.40;;
29916;SDS011;16786;49.466;11.068;2024-03-29T12:55:27;5.38;;;4.68;;
29916;SDS011;16786;49.466;11.068;2024-03-29T12:57:55;8.82;;;5.35;;
29916;SDS011;16786;49.466;11.068;2024-03-29T13:00:22;5.57;;;5.07;;
29916;SDS011;16786;49.466;11.068;2024-03-29T13:02:48;7.90;;;5.00;;
29916;SDS011;16786;49.466;11.068;2024-03-29T13:05:15;4.90;;;4.40;;
29916;SDS011;16786;49.466;11.068;2024-03-29T13:07:41;5.93;;;4.43;;
29916;SDS011;16786;49.466;11.068;2024-03-29T13:10:08;4.70;;;4.30;;
29916;SDS011;16786;49.466;11.068;2024-03-29T13:12:45;5.82;;;5.22;;
29916;SDS011;16786;49.466;11.068;2024-03-29T13:15:22;6.53;;;5.35;;
29916;SDS011;16786;49.466;11.068;2024-03-29T13:17:50;5.30;;;4.80;;
29916;SDS011;16786;49.466;11.068;2024-03-29T13:20:18;5.75;;;4.93;;
29916;SDS011;16786;49.466;11.068;2024-03-29T13:22:45;5.30;;;4.80;;
29916;SDS011;16786;49.466;11.068;2024-03-29T13:25:13;5.47;;;4.63;;
29916;SDS011;16786;49.466;11.068;2024-03-29T13:27:40;5.25;;;4.75;;
29916;SDS011;16786;49.466;11.068;2024-03-29T13:30:08;5.30;;;4.80;;
29916;SDS011;16786;49.466;11.068;2024-03-29T13:32:36;4.88;;;4.47;;
29916;SDS011;16786;49.466;11.068;2024-03-29T13:35:03;7.20;;;5.10;;
29916;SDS011;16786;49.466;11.068;2024-03-29T13:37:34;7.65;;;5.35;;
29916;SDS011;16786;49.466;11.068;2024-03-29T13:40:05;5.60;;;5.00;;
29916;SDS011;16786;49.466;11.068;2024-03-29T13:42:32;6.72;;;5.22;;
29916;SDS011;16786;49.466;11.068;2024-03-29T13:44:58;6.25;;;4.97;;
29916;SDS011;16786;49.466;11.068;2024-03-29T13:47:24;5.35;;;4.65;;
29916;SDS011;16786;49.466;11.068;2024-03-29T13:49:50;5.90;;;5.22;;
29916;SDS011;16786;49.466;11.068;2024-03-29T13:52:19;5.45;;;4.93;;
29916;SDS011;16786;49.466;11.068;2024-03-29T13:54:45;6.13;;;5.50;;
29916;SDS011;16786;49.466;11.068;2024-03-29T13:57:12;5.20;;;4.70;;
29916;SDS011;16786;49.466;11.068;2024-03-29T13:59:39;6.30;;;5.10;;
29916;SDS011;16786;49.466;11.068;2024-03-29T14:02:08;5.18;;;4.72;;
29916;SDS011;16786;49.466;11.068;2024-03-29T14:04:34;5.32;;;4.82;;
29916;SDS011;16786;49.466;11.068;2024-03-29T14:07:00;6.15;;;5.60;;
29916;SDS011;16786;49.466;11.068;2024-03-29T14:09:27;5.65;;;5.13;;
29916;SDS011;16786;49.466;11.068;2024-03-29T14:11:54;5.40;;;4.90;;
29916;SDS011;16786;49.466;11.068;2024-03-29T14:14:20;4.97;;;4.47;;
29916;SDS011;16786;49.466;11.068;2024-03-29T14:16:46;5.68;;;5.18;;
29916;SDS011;16786;49.466;11.068;2024-03-29T14:19:12;5.57;;;5.13;;
29916;SDS011;16786;49.466;11.068;2024-03-29T14:21:39;5.88;;;5.38;;
29916;SDS011;16786;49.466;11.068;2024-03-29T14:24:05;5.13;;;4.63;;
29916;SDS011;16786;49.466;11.068;2024-03-29T14:26:31;8.05;;;7.25;;
29916;SDS011;16786;49.466;11.068;2024-03-29T14:28:57;8.07;;;6.45;;
29916;SDS011;16786;49.466;11.068;2024-03-29T14:31:23;5.25;;;4.75;;
29916;SDS011;16786;49.466;11.068;2024-03-29T14:33:49;6.32;;;5.72;;
29916;SDS011;16786;49.466;11.068;2024-03-29T14:36:15;6.30;;;5.70;;
29916;SDS011;16786;49.466;11.068;2024-03-29T14:38:43;4.90;;;4.50;;